Perrytown, Arkansas
Current Conditions -  °F | °C
As of 5:53 PM on Thursday 18 Dec 2014 (Local Time) from KTXK Reporting Station
Overcast Overcast  
Wind Chill: 46°   Ceiling: 800
Heat Index: 46°   Visibility: 8mi
Dew Point: 43°   Wind: 3mph
Humidity: 89%   Direction: 60°ENE
Pressure: 30.16"   Gusts: NA
Location:  33.6362°N, 93.5878°W
Report Text: KTXK 182353Z 06003KT 8SM OVC008 08/06 A3016 RMK AO2 SLP213 T00780061 10083 20072 53009
Loading
Personal Weather Stations






























Interactive Weather Map New forecast layout! Learn more

10-Day Weather Forecast

Advertisements
Track Severe Weather on mobile